createdAt,value
2022-12-01T00:00:31.860Z,0.00
2022-12-01T00:01:31.852Z,0.00
2022-12-01T00:02:31.957Z,0.00
2022-12-01T00:03:31.832Z,0.00
2022-12-01T00:04:31.819Z,0.00
2022-12-01T00:05:31.803Z,0.00
2022-12-01T00:06:31.794Z,0.00
2022-12-01T00:07:31.840Z,0.00
2022-12-01T00:08:31.776Z,0.00
2022-12-01T00:09:31.762Z,0.00
2022-12-01T00:10:31.754Z,0.00
2022-12-01T00:11:31.736Z,0.00
2022-12-01T00:12:31.734Z,0.00
2022-12-01T00:13:31.715Z,0.00
2022-12-01T00:14:31.702Z,0.00
2022-12-01T00:15:31.693Z,0.00
2022-12-01T00:16:31.747Z,0.00
2022-12-01T00:17:31.667Z,0.00
2022-12-01T00:18:31.652Z,0.00
2022-12-01T00:19:31.639Z,0.00
2022-12-01T00:20:31.632Z,0.00
2022-12-01T00:21:31.628Z,0.00
2022-12-01T00:22:31.612Z,0.00
2022-12-01T00:23:31.599Z,0.00
2022-12-01T00:24:31.603Z,0.00
2022-12-01T00:25:31.578Z,0.00
2022-12-01T00:26:31.563Z,0.00
2022-12-01T00:27:31.552Z,0.00
2022-12-01T00:28:31.540Z,0.00
2022-12-01T00:29:31.526Z,0.00
2022-12-01T00:30:31.516Z,0.00
2022-12-01T00:31:31.533Z,0.00
2022-12-01T00:32:31.491Z,0.00
2022-12-01T00:33:31.484Z,0.00
2022-12-01T00:34:31.470Z,0.00
2022-12-01T00:35:31.461Z,0.00
2022-12-01T00:36:31.449Z,0.00
2022-12-01T00:37:31.439Z,0.00
2022-12-01T00:38:31.427Z,0.00
2022-12-01T00:39:31.411Z,0.00
2022-12-01T00:40:31.402Z,0.00
2022-12-01T00:41:31.391Z,0.00
2022-12-01T00:42:31.376Z,0.00
2022-12-01T00:43:31.364Z,0.00
2022-12-01T00:44:31.352Z,0.00
2022-12-01T00:45:31.365Z,0.00
2022-12-01T00:46:31.390Z,0.00
2022-12-01T00:47:31.321Z,0.00
2022-12-01T00:48:31.309Z,0.00
2022-12-01T00:49:31.295Z,0.00
2022-12-01T00:50:31.285Z,0.00
2022-12-01T00:51:31.273Z,0.00
2022-12-01T00:52:31.263Z,0.00
2022-12-01T00:53:31.250Z,0.00
2022-12-01T00:54:31.236Z,0.00
2022-12-01T00:55:31.226Z,0.00
2022-12-01T00:56:31.216Z,0.00
2022-12-01T00:57:31.202Z,0.00
2022-12-01T00:58:31.194Z,0.00
2022-12-01T00:59:31.181Z,0.00
2022-12-01T01:00:31.167Z,0.00
2022-12-01T01:01:31.212Z,0.00
2022-12-01T01:02:31.165Z,0.00
2022-12-01T01:03:31.135Z,0.00
2022-12-01T01:04:31.123Z,0.00
2022-12-01T01:05:31.115Z,0.00
2022-12-01T01:06:31.095Z,0.00
2022-12-01T01:07:31.129Z,0.00
2022-12-01T01:08:31.074Z,0.00
2022-12-01T01:09:31.070Z,0.00
2022-12-01T01:10:31.052Z,0.00
2022-12-01T01:11:31.039Z,0.00
2022-12-01T01:12:31.029Z,0.00
2022-12-01T01:13:31.014Z,0.00
2022-12-01T01:14:31.003Z,0.00
2022-12-01T01:15:30.992Z,0.00
2022-12-01T01:16:31.021Z,0.00
2022-12-01T01:17:30.976Z,0.00
2022-12-01T01:18:30.956Z,0.00
2022-12-01T01:19:30.945Z,0.00
2022-12-01T01:20:30.938Z,0.00
2022-12-01T01:21:30.924Z,0.00
2022-12-01T01:22:30.906Z,0.00
2022-12-01T01:23:30.900Z,0.00
2022-12-01T01:24:30.892Z,0.00
2022-12-01T01:25:30.878Z,0.00
2022-12-01T01:26:30.861Z,0.00
2022-12-01T01:27:30.856Z,0.00
2022-12-01T01:28:30.844Z,0.00
2022-12-01T01:29:30.827Z,0.00
2022-12-01T01:30:30.872Z,0.00
2022-12-01T01:31:30.810Z,0.00
2022-12-01T01:32:30.796Z,0.00
2022-12-01T01:33:30.782Z,0.00
2022-12-01T01:34:30.764Z,0.00
2022-12-01T01:35:30.754Z,0.00
2022-12-01T01:36:30.747Z,0.00
2022-12-01T01:37:30.747Z,0.00
2022-12-01T01:38:30.732Z,0.00
2022-12-01T01:39:30.714Z,0.00
2022-12-01T01:40:30.704Z,0.00
2022-12-01T01:41:30.689Z,0.00
2022-12-01T01:42:30.671Z,0.00
2022-12-01T01:43:30.667Z,0.00
2022-12-01T01:44:30.656Z,0.00
2022-12-01T01:45:30.657Z,0.00
2022-12-01T01:46:30.689Z,0.00
2022-12-01T01:47:30.614Z,0.00
2022-12-01T01:48:30.603Z,0.00
2022-12-01T01:49:30.595Z,0.00
2022-12-01T01:50:30.578Z,0.00
2022-12-01T01:51:30.569Z,0.00
2022-12-01T01:52:30.565Z,0.00
2022-12-01T01:53:30.549Z,0.00
2022-12-01T01:54:30.533Z,0.00
2022-12-01T01:55:30.524Z,0.00
2022-12-01T01:56:30.513Z,0.00
2022-12-01T01:57:30.499Z,0.00
2022-12-01T01:58:30.489Z,0.00
2022-12-01T01:59:30.474Z,0.00
2022-12-01T02:00:30.465Z,0.00
2022-12-01T02:01:30.491Z,0.00
2022-12-01T02:02:30.486Z,0.00
2022-12-01T02:03:30.426Z,0.00
2022-12-01T02:04:30.421Z,0.00
2022-12-01T02:05:30.410Z,0.00
2022-12-01T02:06:30.390Z,0.00
2022-12-01T02:07:30.421Z,0.00
2022-12-01T02:08:30.382Z,0.00
2022-12-01T02:09:30.364Z,0.00
2022-12-01T02:10:30.348Z,0.00
2022-12-01T02:11:30.333Z,0.00
2022-12-01T02:12:30.322Z,0.00
2022-12-01T02:13:30.310Z,0.00
2022-12-01T02:14:30.296Z,0.00
2022-12-01T02:15:30.285Z,0.00
2022-12-01T02:16:30.320Z,0.00
2022-12-01T02:17:30.261Z,0.00
2022-12-01T02:18:30.269Z,0.00
2022-12-01T02:19:30.233Z,0.00
2022-12-01T02:20:30.223Z,0.00
2022-12-01T02:21:30.215Z,0.00
2022-12-01T02:22:30.201Z,0.00
2022-12-01T02:23:30.186Z,0.00
2022-12-01T02:24:30.177Z,0.00
2022-12-01T02:25:30.161Z,0.00
2022-12-01T02:26:30.161Z,0.00
2022-12-01T02:27:30.140Z,0.00
2022-12-01T02:28:30.131Z,0.00
2022-12-01T02:29:30.118Z,0.00
2022-12-01T02:30:30.147Z,0.00
2022-12-01T02:31:30.093Z,0.00
2022-12-01T02:32:30.084Z,0.00
2022-12-01T02:33:30.090Z,0.00
2022-12-01T02:34:30.062Z,0.00
2022-12-01T02:35:30.044Z,0.00
2022-12-01T02:36:30.035Z,0.00
2022-12-01T02:37:30.025Z,0.00
2022-12-01T02:38:30.011Z,0.00
2022-12-01T02:39:29.998Z,0.00
2022-12-01T02:40:29.989Z,0.00
2022-12-01T02:41:29.975Z,0.00
2022-12-01T02:42:29.962Z,0.00
2022-12-01T02:43:29.956Z,0.00
2022-12-01T02:44:29.943Z,0.00
2022-12-01T02:45:29.932Z,0.00
2022-12-01T02:46:29.977Z,0.00
2022-12-01T02:47:29.904Z,0.00
2022-12-01T02:48:29.891Z,0.00
2022-12-01T02:49:29.881Z,0.00
2022-12-01T02:50:29.861Z,0.00
2022-12-01T02:51:29.854Z,0.00
2022-12-01T02:52:29.842Z,0.00
2022-12-01T02:55:01.577Z,0.00
2022-12-01T02:56:01.569Z,0.00
2022-12-01T02:58:05.486Z,0.00
2022-12-01T02:59:05.473Z,0.00
2022-12-01T03:01:09.425Z,0.00
2022-12-01T03:02:09.433Z,0.00
2022-12-01T03:04:13.323Z,0.00
2022-12-01T03:05:13.304Z,0.00
2022-12-01T03:07:17.248Z,0.00
2022-12-01T03:08:17.222Z,0.00
2022-12-01T03:10:21.166Z,0.00
2022-12-01T03:11:21.147Z,0.00
2022-12-01T03:13:25.081Z,0.00
2022-12-01T03:14:25.066Z,0.00
2022-12-01T03:16:29.064Z,0.00
2022-12-01T03:17:28.983Z,0.00
2022-12-01T03:19:32.926Z,0.00
2022-12-01T03:20:32.901Z,0.00
2022-12-01T03:22:36.847Z,0.00
2022-12-01T03:23:36.825Z,0.00
2022-12-01T03:25:40.766Z,0.00
2022-12-01T03:26:40.742Z,0.00
2022-12-01T03:28:44.679Z,0.00
2022-12-01T03:29:44.658Z,0.00
2022-12-01T03:31:48.680Z,0.00
2022-12-01T03:32:48.579Z,0.00
2022-12-01T03:34:41.439Z,0.00
2022-12-01T03:35:41.425Z,0.00
2022-12-01T03:37:45.367Z,0.00
2022-12-01T03:38:45.355Z,0.00
2022-12-01T03:40:49.287Z,0.00
2022-12-01T03:41:49.262Z,0.00
2022-12-01T03:43:53.201Z,0.00
2022-12-01T03:44:53.181Z,0.00
2022-12-01T03:46:57.125Z,0.00
2022-12-01T03:47:57.102Z,0.00
2022-12-01T03:50:01.039Z,0.00
2022-12-01T03:51:01.028Z,0.00
2022-12-01T03:53:04.968Z,0.00
2022-12-01T03:54:04.946Z,0.00
2022-12-01T03:56:08.890Z,0.00
2022-12-01T03:57:08.863Z,0.00
2022-12-01T03:59:12.805Z,0.00
2022-12-01T04:00:12.787Z,0.00
2022-12-01T04:02:16.733Z,0.00
2022-12-01T04:03:16.822Z,0.00
2022-12-01T04:05:09.576Z,0.00
2022-12-01T04:06:09.558Z,0.00
2022-12-01T04:08:13.497Z,0.00
2022-12-01T04:09:13.475Z,0.00
2022-12-01T04:11:17.409Z,0.00
2022-12-01T04:12:17.411Z,0.00
2022-12-01T04:14:21.331Z,0.00
2022-12-01T04:15:21.312Z,0.00
2022-12-01T04:17:25.253Z,0.00
2022-12-01T04:18:25.233Z,0.00
2022-12-01T04:20:29.168Z,0.00
2022-12-01T04:21:29.151Z,0.00
2022-12-01T04:23:33.112Z,0.00
2022-12-01T04:24:33.074Z,0.00
2022-12-01T04:26:37.022Z,0.00
2022-12-01T04:27:36.992Z,0.00
2022-12-01T04:29:40.932Z,0.00
2022-12-01T04:30:40.906Z,0.00
2022-12-01T04:32:44.849Z,0.00
2022-12-01T04:33:44.826Z,0.00
2022-12-01T04:35:48.755Z,0.00
2022-12-01T04:36:48.744Z,0.00
2022-12-01T04:38:52.685Z,0.00
2022-12-01T04:39:52.828Z,0.00
2022-12-01T04:41:56.599Z,0.00
2022-12-01T04:42:56.578Z,0.00
2022-12-01T04:44:49.440Z,0.00
2022-12-01T04:45:49.434Z,0.00
2022-12-01T04:47:53.366Z,0.00
2022-12-01T04:48:53.348Z,0.00
2022-12-01T04:50:57.281Z,0.00
2022-12-01T04:51:57.263Z,0.00
2022-12-01T04:54:01.210Z,0.00
2022-12-01T04:55:01.183Z,0.00
2022-12-01T04:57:05.125Z,0.00
2022-12-01T04:58:05.108Z,0.00
2022-12-01T05:00:09.046Z,0.00
2022-12-01T05:01:09.144Z,0.00
2022-12-01T05:03:15.245Z,0.00
2022-12-01T05:04:12.939Z,0.00
2022-12-01T05:06:16.876Z,0.00
2022-12-01T05:07:16.855Z,0.00
2022-12-01T05:09:20.800Z,0.00
2022-12-01T05:10:20.779Z,0.00
2022-12-01T05:12:24.726Z,0.00
2022-12-01T05:13:24.698Z,0.00
2022-12-01T05:15:28.631Z,0.00
2022-12-01T05:16:28.645Z,0.00
2022-12-01T05:18:32.662Z,0.00
2022-12-01T05:19:32.537Z,0.00
2022-12-01T05:21:36.469Z,0.00
2022-12-01T05:23:03.706Z,0.00
2022-12-01T05:24:29.324Z,0.00
2022-12-01T05:25:29.299Z,0.00
2022-12-01T05:27:33.233Z,0.00
2022-12-01T05:28:33.221Z,0.00
2022-12-01T05:30:37.158Z,0.00
2022-12-01T05:31:37.187Z,0.00
2022-12-01T05:33:41.077Z,0.00
2022-12-01T05:34:41.047Z,0.00
2022-12-01T05:36:44.983Z,0.00
2022-12-01T05:37:44.968Z,0.00
2022-12-01T05:39:49.112Z,0.00
2022-12-01T05:40:48.887Z,0.00
2022-12-01T05:42:52.826Z,0.00
2022-12-01T05:43:52.803Z,0.00
2022-12-01T05:45:56.801Z,0.00
2022-12-01T05:46:56.726Z,0.00
2022-12-01T05:49:00.670Z,0.00
2022-12-01T05:50:05.144Z,0.00
2022-12-01T05:52:04.807Z,0.00
2022-12-01T05:53:04.558Z,0.00
2022-12-01T05:54:57.433Z,0.00
2022-12-01T05:55:57.410Z,0.00
2022-12-01T05:58:01.346Z,0.00
2022-12-01T05:59:01.325Z,0.00
2022-12-01T06:01:05.269Z,0.00
2022-12-01T06:02:05.286Z,0.00
2022-12-01T06:04:09.231Z,0.00
2022-12-01T06:05:09.182Z,0.00
2022-12-01T06:07:13.098Z,0.00
2022-12-01T06:08:13.085Z,0.00
2022-12-01T06:10:17.073Z,0.00
2022-12-01T06:11:17.049Z,0.00
2022-12-01T06:13:10.115Z,0.00
2022-12-01T06:14:10.090Z,0.00
2022-12-01T06:16:14.072Z,0.00
2022-12-01T06:17:14.009Z,0.00
2022-12-01T06:19:17.943Z,0.00
2022-12-01T06:20:17.928Z,0.00
2022-12-01T06:22:21.880Z,0.00
2022-12-01T06:23:24.298Z,0.00
2022-12-01T06:25:14.715Z,0.00
2022-12-01T06:26:14.715Z,0.00
2022-12-01T06:28:18.709Z,0.00
2022-12-01T06:29:18.604Z,0.00
2022-12-01T06:31:22.594Z,0.00
2022-12-01T06:32:22.535Z,0.00
2022-12-01T06:34:15.393Z,0.00
2022-12-01T06:35:15.373Z,0.00
2022-12-01T06:37:19.296Z,0.00
2022-12-01T06:38:19.294Z,0.00
2022-12-01T06:40:23.808Z,0.00
2022-12-01T06:41:23.402Z,0.00
2022-12-01T06:43:27.343Z,0.00
2022-12-01T06:44:27.310Z,0.00
2022-12-01T06:46:31.306Z,0.00
2022-12-01T06:47:31.236Z,0.00
2022-12-01T06:49:35.179Z,0.00
2022-12-01T06:50:35.157Z,0.00
2022-12-01T06:52:39.094Z,0.00
2022-12-01T06:53:39.075Z,0.00
2022-12-01T06:55:43.020Z,0.00
2022-12-01T06:56:42.998Z,0.00
2022-12-01T06:58:46.937Z,0.00
2022-12-01T06:59:47.271Z,0.00
2022-12-01T07:01:50.937Z,0.00
2022-12-01T07:02:50.932Z,0.00
2022-12-01T07:04:43.702Z,0.00
2022-12-01T07:05:43.679Z,0.00
2022-12-01T07:07:47.630Z,0.00
2022-12-01T07:08:47.599Z,0.00
2022-12-01T07:10:51.548Z,0.00
2022-12-01T07:11:51.516Z,0.00
2022-12-01T07:13:55.478Z,0.00
2022-12-01T07:14:55.435Z,0.00
2022-12-01T07:16:59.450Z,0.00
2022-12-01T07:17:59.353Z,0.00
2022-12-01T07:20:03.297Z,0.00
2022-12-01T07:21:03.275Z,0.00
2022-12-01T07:23:07.421Z,0.00
2022-12-01T07:24:07.402Z,0.00
2022-12-01T07:26:11.349Z,0.00
2022-12-01T07:27:11.324Z,0.00
2022-12-01T07:29:15.265Z,0.00
2022-12-01T07:30:15.254Z,0.00
2022-12-01T07:32:19.759Z,0.00
2022-12-01T07:33:19.552Z,0.00
2022-12-01T07:35:12.457Z,0.00
2022-12-01T07:36:12.210Z,0.00
2022-12-01T07:38:21.793Z,0.00
2022-12-01T07:39:16.119Z,0.00
2022-12-01T07:41:20.063Z,0.00
2022-12-01T07:42:20.034Z,0.00
2022-12-01T07:44:24.559Z,5.63
2022-12-01T07:45:24.349Z,5.63
2022-12-01T07:47:28.082Z,5.63
2022-12-01T07:48:28.065Z,5.63
2022-12-01T07:50:32.007Z,5.63
2022-12-01T07:51:31.984Z,5.63
2022-12-01T07:53:35.923Z,5.63
2022-12-01T07:54:35.909Z,5.63
2022-12-01T07:56:39.850Z,5.63
2022-12-01T07:57:39.828Z,5.63
2022-12-01T07:59:43.777Z,5.63
2022-12-01T08:00:43.745Z,5.63
2022-12-01T08:02:47.709Z,5.63
2022-12-01T08:03:47.669Z,5.63
2022-12-01T08:05:51.605Z,5.63
2022-12-01T08:06:51.572Z,5.63
2022-12-01T08:08:55.528Z,5.63
2022-12-01T08:09:55.498Z,11.25
2022-12-01T08:11:59.436Z,11.25
2022-12-01T08:12:59.417Z,11.25
2022-12-01T08:14:52.292Z,11.25
2022-12-01T08:15:52.293Z,11.25
2022-12-01T08:17:56.201Z,11.25
2022-12-01T08:18:56.186Z,11.25
2022-12-01T08:21:00.127Z,11.25
2022-12-01T08:22:00.102Z,11.25
2022-12-01T08:24:04.046Z,16.88
2022-12-01T08:25:04.020Z,16.88
2022-12-01T08:27:07.958Z,16.88
2022-12-01T08:28:07.933Z,16.88
2022-12-01T08:30:11.881Z,11.25
2022-12-01T08:31:11.910Z,11.25
2022-12-01T08:33:15.791Z,11.25
2022-12-01T08:34:15.773Z,11.25
2022-12-01T08:36:19.714Z,16.88
2022-12-01T08:37:19.688Z,16.88
2022-12-01T08:39:23.634Z,16.88
2022-12-01T08:40:23.606Z,16.88
2022-12-01T08:42:27.563Z,16.88
2022-12-01T08:43:55.899Z,16.88
2022-12-01T08:45:31.471Z,11.25
2022-12-01T08:46:31.528Z,11.25
2022-12-01T08:48:35.396Z,16.88
2022-12-01T08:49:35.373Z,16.88
2022-12-01T08:51:39.306Z,16.88
2022-12-01T08:52:39.290Z,16.88
2022-12-01T08:54:32.359Z,22.50
2022-12-01T08:55:32.327Z,22.50
2022-12-01T08:57:25.242Z,22.50
2022-12-01T08:58:25.214Z,28.13
2022-12-01T09:00:29.164Z,33.75
2022-12-01T09:01:29.202Z,39.38
2022-12-01T09:03:33.077Z,45.00
2022-12-01T09:04:33.072Z,56.25
2022-12-01T09:06:36.994Z,50.63
2022-12-01T09:07:37.040Z,56.25
2022-12-01T09:09:40.924Z,56.25
2022-12-01T09:10:40.892Z,56.25
2022-12-01T09:12:44.841Z,61.88
2022-12-01T09:13:46.785Z,56.25
2022-12-01T09:15:37.687Z,61.88
2022-12-01T09:16:37.760Z,56.25
2022-12-01T09:18:41.610Z,61.88
2022-12-01T09:19:41.584Z,61.88
2022-12-01T09:21:45.556Z,61.88
2022-12-01T09:22:45.539Z,56.25
2022-12-01T09:24:38.412Z,56.25
2022-12-01T09:25:38.388Z,61.88
2022-12-01T09:27:42.348Z,56.25
2022-12-01T09:28:42.306Z,56.25
2022-12-01T09:30:46.246Z,61.88
2022-12-01T09:31:46.260Z,61.88
2022-12-01T09:33:50.170Z,61.88
2022-12-01T09:34:50.156Z,61.88
2022-12-01T09:36:54.085Z,61.88
2022-12-01T09:37:54.087Z,61.88
2022-12-01T09:39:58.012Z,73.13
2022-12-01T09:40:57.997Z,67.50
2022-12-01T09:43:01.931Z,73.13
2022-12-01T09:44:01.915Z,73.13
2022-12-01T09:45:01.914Z,67.50
2022-12-01T09:46:01.893Z,67.50
2022-12-01T09:47:01.952Z,73.13
2022-12-01T09:48:01.873Z,73.13
2022-12-01T09:49:01.855Z,73.13
2022-12-01T09:50:01.845Z,78.75
2022-12-01T09:51:01.839Z,78.75
2022-12-01T09:52:01.821Z,78.75
2022-12-01T09:53:01.810Z,73.13
2022-12-01T09:54:01.791Z,78.75
2022-12-01T09:55:01.802Z,78.75
2022-12-01T09:56:08.579Z,78.75
2022-12-01T09:57:01.764Z,78.75
2022-12-01T09:58:01.749Z,78.75
2022-12-01T09:59:01.735Z,78.75
2022-12-01T10:00:01.725Z,73.13
2022-12-01T10:01:01.744Z,67.50
2022-12-01T10:02:01.731Z,67.50
2022-12-01T10:03:01.687Z,67.50
2022-12-01T10:04:01.673Z,67.50
2022-12-01T10:05:01.717Z,61.88
2022-12-01T10:07:01.639Z,61.88
2022-12-01T10:08:01.678Z,67.50
2022-12-01T10:09:01.612Z,67.50
2022-12-01T10:10:01.616Z,67.50
2022-12-01T10:11:01.591Z,67.50
2022-12-01T10:12:01.578Z,61.88
2022-12-01T10:13:01.567Z,61.88
2022-12-01T10:14:01.550Z,67.50
2022-12-01T10:15:01.542Z,67.50
2022-12-01T10:16:01.643Z,67.50
2022-12-01T10:17:01.523Z,67.50
2022-12-01T10:18:01.507Z,73.13
2022-12-01T10:19:01.492Z,73.13
2022-12-01T10:20:01.481Z,73.13
2022-12-01T10:21:01.471Z,84.38
2022-12-01T10:22:01.461Z,84.38
2022-12-01T10:23:01.448Z,78.75
2022-12-01T10:24:01.431Z,84.38
2022-12-01T10:25:01.426Z,90.00
2022-12-01T10:26:01.411Z,101.25
2022-12-01T10:27:01.399Z,112.50
2022-12-01T10:28:01.385Z,118.13
2022-12-01T10:29:01.373Z,123.75
2022-12-01T10:30:01.361Z,135.00
2022-12-01T10:31:01.351Z,140.63
2022-12-01T10:32:01.402Z,135.00
2022-12-01T10:33:01.327Z,135.00
2022-12-01T10:34:01.316Z,135.00
2022-12-01T10:35:01.305Z,129.38
2022-12-01T10:36:01.297Z,123.75
2022-12-01T10:37:01.281Z,118.13
2022-12-01T10:38:01.345Z,112.50
2022-12-01T10:39:01.254Z,112.50
2022-12-01T10:40:01.244Z,112.50
2022-12-01T10:41:01.223Z,112.50
2022-12-01T10:42:01.218Z,106.88
2022-12-01T10:43:01.212Z,106.88
2022-12-01T10:44:01.194Z,101.25
2022-12-01T10:45:01.189Z,95.63
2022-12-01T10:46:01.187Z,95.63
2022-12-01T10:47:01.162Z,95.63
2022-12-01T10:48:01.146Z,95.63
2022-12-01T10:49:01.146Z,95.63
2022-12-01T10:50:01.125Z,90.00
2022-12-01T10:51:01.114Z,84.38
2022-12-01T10:52:01.105Z,84.38
2022-12-01T10:53:01.090Z,84.38
2022-12-01T10:54:01.078Z,84.38
2022-12-01T10:55:01.065Z,84.38
2022-12-01T10:56:01.064Z,84.38
2022-12-01T10:57:01.046Z,84.38
2022-12-01T10:58:06.220Z,84.38
2022-12-01T10:59:01.020Z,90.00
2022-12-01T11:00:01.009Z,90.00
2022-12-01T11:01:01.399Z,84.38
2022-12-01T11:02:01.168Z,90.00
2022-12-01T11:03:01.077Z,95.63
2022-12-01T11:04:00.988Z,95.63
2022-12-01T11:05:00.957Z,101.25
2022-12-01T11:06:00.936Z,95.63
2022-12-01T11:07:00.928Z,95.63
2022-12-01T11:08:00.970Z,101.25
2022-12-01T11:09:00.902Z,101.25
2022-12-01T11:10:00.892Z,106.88
2022-12-01T11:11:00.881Z,106.88
2022-12-01T11:12:00.863Z,101.25
2022-12-01T11:13:00.879Z,90.00
2022-12-01T11:14:00.842Z,84.38
2022-12-01T11:15:00.834Z,78.75
2022-12-01T11:16:00.825Z,73.13
2022-12-01T11:17:00.895Z,61.88
2022-12-01T11:18:00.794Z,61.88
2022-12-01T11:19:00.817Z,61.88
2022-12-01T11:20:00.821Z,61.88
2022-12-01T11:21:00.778Z,56.25
2022-12-01T11:22:00.752Z,56.25
2022-12-01T11:23:00.746Z,56.25
2022-12-01T11:24:00.726Z,50.63
2022-12-01T11:25:00.725Z,50.63
2022-12-01T11:26:00.711Z,45.00
2022-12-01T11:27:00.709Z,45.00
2022-12-01T11:28:00.682Z,45.00
2022-12-01T11:29:00.667Z,45.00
2022-12-01T11:30:00.667Z,45.00
2022-12-01T11:31:00.645Z,45.00
2022-12-01T11:32:00.734Z,45.00
2022-12-01T11:33:00.624Z,45.00
2022-12-01T11:34:00.611Z,45.00
2022-12-01T11:35:00.600Z,45.00
2022-12-01T11:36:00.591Z,45.00
2022-12-01T11:37:00.580Z,45.00
2022-12-01T11:38:28.254Z,45.00
2022-12-01T11:39:00.552Z,45.00
2022-12-01T11:40:00.543Z,45.00
2022-12-01T11:41:00.532Z,45.00
2022-12-01T11:42:00.520Z,45.00
2022-12-01T11:43:00.509Z,45.00
2022-12-01T11:44:01.735Z,45.00
2022-12-01T11:45:00.479Z,45.00
2022-12-01T11:46:00.618Z,45.00
2022-12-01T11:47:21.461Z,45.00
2022-12-01T11:48:00.446Z,45.00
2022-12-01T11:49:00.434Z,45.00
2022-12-01T11:50:00.423Z,45.00
2022-12-01T11:51:00.411Z,45.00
2022-12-01T11:52:00.405Z,45.00
2022-12-01T11:53:00.401Z,45.00
2022-12-01T11:54:00.374Z,45.00
2022-12-01T11:55:02.334Z,50.63
2022-12-01T11:56:00.353Z,50.63
2022-12-01T11:57:25.818Z,50.63
2022-12-01T11:58:00.326Z,45.00
2022-12-01T11:59:00.316Z,45.00
2022-12-01T12:00:00.306Z,39.38
2022-12-01T12:01:00.295Z,39.38
2022-12-01T12:02:00.351Z,39.38
2022-12-01T12:03:00.947Z,39.38
2022-12-01T12:04:00.256Z,45.00
2022-12-01T12:05:00.248Z,50.63
2022-12-01T12:06:17.866Z,56.25
2022-12-01T12:07:00.220Z,61.88
2022-12-01T12:08:00.262Z,61.88
2022-12-01T12:09:00.260Z,61.88
2022-12-01T12:10:00.186Z,67.50
2022-12-01T12:11:00.206Z,61.88
2022-12-01T12:12:00.164Z,67.50
2022-12-01T12:13:00.150Z,73.13
2022-12-01T12:14:00.137Z,78.75
2022-12-01T12:15:00.137Z,78.75
2022-12-01T12:16:00.122Z,78.75
2022-12-01T12:17:00.102Z,78.75
2022-12-01T12:18:00.153Z,73.13
2022-12-01T12:19:00.073Z,67.50
2022-12-01T12:20:07.637Z,67.50
2022-12-01T12:21:00.053Z,73.13
2022-12-01T12:22:00.041Z,67.50
2022-12-01T12:23:00.032Z,61.88
2022-12-01T12:24:00.019Z,61.88
2022-12-01T12:25:00.013Z,56.25
2022-12-01T12:25:59.997Z,56.25
2022-12-01T12:26:59.987Z,56.25
2022-12-01T12:27:59.969Z,61.88
2022-12-01T12:28:59.960Z,61.88
2022-12-01T12:29:59.951Z,61.88
2022-12-01T12:30:59.980Z,61.88
2022-12-01T12:31:59.924Z,61.88
2022-12-01T12:32:59.914Z,61.88
2022-12-01T12:33:59.908Z,61.88
2022-12-01T12:34:59.892Z,67.50
2022-12-01T12:35:59.879Z,67.50
2022-12-01T12:36:59.869Z,67.50
2022-12-01T12:37:59.854Z,67.50
2022-12-01T12:38:59.845Z,67.50
2022-12-01T12:39:59.840Z,67.50
2022-12-01T12:40:59.818Z,73.13
2022-12-01T12:41:59.808Z,78.75
2022-12-01T12:42:59.798Z,84.38
2022-12-01T12:43:59.785Z,84.38
2022-12-01T12:44:59.774Z,78.75
2022-12-01T12:45:59.821Z,67.50
2022-12-01T12:46:59.747Z,61.88
2022-12-01T12:47:59.737Z,61.88
2022-12-01T12:49:59.713Z,56.25
2022-12-01T12:50:59.702Z,56.25
2022-12-01T12:52:05.075Z,61.88
2022-12-01T12:52:59.679Z,61.88
2022-12-01T12:53:59.775Z,67.50
2022-12-01T12:54:59.653Z,67.50
2022-12-01T12:55:59.645Z,67.50
2022-12-01T12:56:59.659Z,67.50
2022-12-01T12:57:59.621Z,61.88
2022-12-01T12:58:59.607Z,56.25
2022-12-01T12:59:59.594Z,50.63
2022-12-01T13:00:59.585Z,50.63
2022-12-01T13:01:59.652Z,45.00
2022-12-01T13:02:59.634Z,45.00
2022-12-01T13:03:59.544Z,45.00
2022-12-01T13:04:59.558Z,50.63
2022-12-01T13:05:59.523Z,50.63
2022-12-01T13:06:59.580Z,45.00
2022-12-01T13:07:59.552Z,45.00
2022-12-01T13:08:59.490Z,45.00
2022-12-01T13:10:00.933Z,45.00
2022-12-01T13:10:59.475Z,45.00
2022-12-01T13:11:59.455Z,45.00
2022-12-01T13:12:59.440Z,50.63
2022-12-01T13:13:59.607Z,50.63
2022-12-01T13:15:01.238Z,50.63
2022-12-01T13:15:59.492Z,45.00
2022-12-01T13:16:59.397Z,45.00
2022-12-01T13:17:59.388Z,45.00
2022-12-01T13:18:59.370Z,45.00
2022-12-01T13:19:59.363Z,39.38
2022-12-01T13:20:59.351Z,39.38
2022-12-01T13:21:59.408Z,33.75
2022-12-01T13:22:59.321Z,33.75
2022-12-01T13:23:59.312Z,33.75
2022-12-01T13:24:59.304Z,33.75
2022-12-01T13:25:59.292Z,39.38
2022-12-01T13:26:59.328Z,45.00
2022-12-01T13:27:59.268Z,45.00
2022-12-01T13:28:59.268Z,50.63
2022-12-01T13:29:59.248Z,50.63
2022-12-01T13:30:59.308Z,50.63
2022-12-01T13:31:59.220Z,50.63
2022-12-01T13:32:59.209Z,50.63
2022-12-01T13:33:59.199Z,56.25
2022-12-01T13:34:59.176Z,56.25
2022-12-01T13:36:23.034Z,56.25
2022-12-01T13:36:59.156Z,56.25
2022-12-01T13:37:59.151Z,61.88
2022-12-01T13:38:59.134Z,61.88
2022-12-01T13:39:59.156Z,61.88
2022-12-01T13:40:59.119Z,61.88
2022-12-01T13:41:59.114Z,61.88
2022-12-01T13:42:59.091Z,61.88
2022-12-01T13:43:59.142Z,61.88
2022-12-01T13:44:59.068Z,61.88
2022-12-01T13:45:59.058Z,61.88
2022-12-01T13:46:59.116Z,61.88
2022-12-01T13:47:59.035Z,61.88
2022-12-01T13:48:59.021Z,61.88
2022-12-01T13:49:59.011Z,61.88
2022-12-01T13:50:58.999Z,56.25
2022-12-01T13:51:58.977Z,56.25
2022-12-01T13:52:58.976Z,50.63
2022-12-01T13:53:58.972Z,50.63
2022-12-01T13:54:58.951Z,56.25
2022-12-01T13:55:58.946Z,56.25
2022-12-01T13:56:58.925Z,56.25
2022-12-01T13:57:58.913Z,50.63
2022-12-01T13:58:58.930Z,50.63
2022-12-01T13:59:58.938Z,50.63
2022-12-01T14:00:58.926Z,45.00
2022-12-01T14:01:58.899Z,45.00
2022-12-01T14:02:58.882Z,45.00
2022-12-01T14:03:58.843Z,50.63
2022-12-01T14:04:58.832Z,50.63
2022-12-01T14:05:58.821Z,50.63
2022-12-01T14:06:58.825Z,50.63
2022-12-01T14:07:58.862Z,50.63
2022-12-01T14:08:58.782Z,50.63
2022-12-01T14:09:58.771Z,50.63
2022-12-01T14:10:58.770Z,50.63
2022-12-01T14:11:58.750Z,50.63
2022-12-01T14:12:58.737Z,50.63
2022-12-01T14:13:58.723Z,50.63
2022-12-01T14:14:59.165Z,50.63
2022-12-01T14:15:58.801Z,50.63
2022-12-01T14:16:58.711Z,50.63
2022-12-01T14:17:58.680Z,50.63
2022-12-01T14:18:58.665Z,50.63
2022-12-01T14:19:58.673Z,50.63
2022-12-01T14:20:58.659Z,50.63
2022-12-01T14:21:58.633Z,50.63
2022-12-01T14:22:58.620Z,50.63
2022-12-01T14:23:58.608Z,50.63
2022-12-01T14:24:58.596Z,50.63
2022-12-01T14:25:58.583Z,50.63
2022-12-01T14:26:58.582Z,50.63
2022-12-01T14:27:58.561Z,50.63
2022-12-01T14:28:58.544Z,50.63
2022-12-01T14:29:58.537Z,45.00
2022-12-01T14:30:58.566Z,45.00
2022-12-01T14:31:58.512Z,39.38
2022-12-01T14:32:58.523Z,39.38
2022-12-01T14:33:58.492Z,39.38
2022-12-01T14:34:58.472Z,39.38
2022-12-01T14:35:58.467Z,39.38
2022-12-01T14:36:58.454Z,39.38
2022-12-01T14:37:58.442Z,39.38
2022-12-01T14:38:58.425Z,39.38
2022-12-01T14:39:58.450Z,39.38
2022-12-01T14:40:58.402Z,39.38
2022-12-01T14:41:58.399Z,39.38
2022-12-01T14:42:58.404Z,39.38
2022-12-01T14:43:58.368Z,39.38
2022-12-01T14:44:58.384Z,39.38
2022-12-01T14:45:58.366Z,39.38
2022-12-01T14:46:58.392Z,33.75
2022-12-01T14:47:58.322Z,33.75
2022-12-01T14:48:58.307Z,33.75
2022-12-01T14:49:58.298Z,33.75
2022-12-01T14:50:58.285Z,33.75
2022-12-01T14:51:58.274Z,33.75
2022-12-01T14:52:58.282Z,33.75
2022-12-01T14:53:58.254Z,28.13
2022-12-01T14:54:58.240Z,28.13
2022-12-01T14:55:58.228Z,28.13
2022-12-01T14:57:02.715Z,28.13
2022-12-01T14:57:58.219Z,22.50
2022-12-01T14:58:58.200Z,22.50
2022-12-01T14:59:58.183Z,22.50
2022-12-01T15:00:58.230Z,16.88
2022-12-01T15:01:58.341Z,16.88
2022-12-01T15:02:58.140Z,16.88
2022-12-01T15:03:58.127Z,16.88
2022-12-01T15:04:58.116Z,16.88
2022-12-01T15:05:58.107Z,16.88
2022-12-01T15:06:58.089Z,11.25
2022-12-01T15:08:12.615Z,11.25
2022-12-01T15:09:25.157Z,11.25
2022-12-01T15:09:58.056Z,11.25
2022-12-01T15:10:58.044Z,11.25
2022-12-01T15:11:58.032Z,11.25
2022-12-01T15:12:58.021Z,11.25
2022-12-01T15:13:58.008Z,11.25
2022-12-01T15:14:57.997Z,5.63
2022-12-01T15:15:58.099Z,5.63
2022-12-01T15:16:58.009Z,5.63
2022-12-01T15:17:57.959Z,5.63
2022-12-01T15:18:57.941Z,5.63
2022-12-01T15:19:57.936Z,5.63
2022-12-01T15:20:57.924Z,5.63
2022-12-01T15:21:57.905Z,5.63
2022-12-01T15:22:57.900Z,5.63
2022-12-01T15:23:57.879Z,5.63
2022-12-01T15:24:57.876Z,0.00
2022-12-01T15:25:57.864Z,0.00
2022-12-01T15:27:03.272Z,0.00
2022-12-01T15:27:57.838Z,0.00